Terminal Aerodrome Forecast
Issued by NWS Grand Forks, ND

Home | Current Version | Previous Version | Text Only | Print | Product List | Glossary Off
Versions: 1 2 3 4 5 6 7 8 9 10 11 12 13 14 15 16 17 18

876
FTUS43 KFGF 011120
TAFGFK
TAF
KGFK 011120Z 0112/0212 34009KT P6SM BKN013
     FM011800 35009KT P6SM BKN018
     FM012200 35008KT P6SM BKN035=

USA.gov is the U.S. government's official web portal to all federal, state and local government web resources and services.